EW7809 Weather Reports


Display with metric or nautical units.
time (UTC)temp
F
wind
direction
speed
MPH
gust
MPH
rain 1hr
in
rain 24hr
in
rain mn
in
humidity
%
barometer
mb
20191208024659 57 277 0.0 0.0 0.01 0.21 0.21 94 1015.7
20191208023229 57 277 0.0 3.0 0.01 0.21 0.21 94 1016.1
20191208021637 57 277 0.0 0.0 0.02 0.21 0.21 94 1016.1
20191208020135 57 277 0.0 0.0 0.02 0.21 0.21 94 1016.2
20191208014721 57 277 1.0 4.0 0.01 0.20 0.20 93 1015.9
20191208013224 58 277 0.0 0.0 0.01 0.20 0.20 93 1016.2
20191208011641 58 277 0.0 0.0 0.00 0.20 0.19 93 1016.1
20191208010314 58 277 0.0 0.0 0.00 0.20 0.19 93 1016.1
20191208004733 58 277 0.0 2.0 0.00 0.20 0.19 93 1016.0
20191208003211 58 277 0.0 0.0 0.00 0.20 0.19 93 1016.0
20191208001636 58 277 0.0 2.0 0.00 0.25 0.19 93 1016.0
20191208000103 57 277 0.0 3.0 0.00 0.25 0.19 93 1016.0
20191207234634 58 277 4.0 7.0 0.01 0.25 0.19 92 1016.3
20191207233156 58 277 2.0 7.0 0.02 0.25 0.19 92 1016.4
20191207231644 58 277 4.0 8.0 0.02 0.30 0.19 92 1016.4
20191207230136 59 277 4.0 10.0 0.02 0.30 0.19 92 1016.3
20191207224718 60 302 1.0 4.0 0.01 0.28 0.18 92 1016.4
20191207223138 59 302 1.0 3.0 0.00 0.28 0.17 92 1016.8
20191207221651 59 302 0.0 3.0 0.00 0.28 0.17 92 1016.7
20191207220205 59 302 1.0 6.0 0.00 0.28 0.17 92 1016.6
20191207214641 59 302 2.0 5.0 0.00 0.28 0.17 92 1016.4
20191207213122 59 302 1.0 4.0 0.01 0.28 0.17 92 1016.7
20191207211628 60 302 0.0 0.0 0.01 0.28 0.17 92 1016.8
20191207210126 60 302 0.0 0.0 0.01 0.28 0.17 92 1016.9
20191207204557 60 302 0.0 0.0 0.01 0.28 0.17 92 1016.8
20191207203151 59 302 0.0 0.0 0.00 0.27 0.16 91 1016.9
20191207201616 59 302 0.0 0.0 0.00 0.27 0.16 90 1017.2
20191207200106 60 302 0.0 0.0 0.00 0.27 0.16 90 1017.6
20191207194551 60 302 0.0 0.0 0.00 0.27 0.16 91 1018.0
20191207193118 59 302 0.0 0.0 0.00 0.27 0.16 92 1018.4
20191207191539 59 302 0.0 0.0 0.00 0.27 0.16 93 1018.6
20191207190050 59 302 0.0 0.0 0.00 0.27 0.16 93 1018.7
20191207184558 59 302 0.0 0.0 0.00 0.27 0.16 94 1019.2
20191207183047 58 302 0.0 0.0 0.00 0.27 0.16 94 1019.3
20191207181605 58 302 0.0 2.0 0.00 0.27 0.16 94 1019.4
20191207180047 58 302 0.0 0.0 0.00 0.27 0.16 94 1019.6
20191207174611 58 302 0.0 3.0 0.00 0.27 0.16 94 1019.5
20191207173041 58 302 3.0 5.0 0.00 0.27 0.16 94 1019.3
20191207171552 58 302 0.0 0.0 0.00 0.27 0.16 94 1019.6
20191207170036 57 302 0.0 0.0 0.01 0.27 0.16 94 1019.3
20191207164528 57 302 0.0 0.0 0.01 0.27 0.16 94 1019.3
20191207163035 57 303 0.0 0.0 0.01 0.27 0.16 94 1019.3
20191207161535 57 303 0.0 0.0 0.01 0.27 0.16 94 1019.0
20191207160036 57 303 0.0 0.0 0.00 0.26 0.15 94 1019.1
20191207154538 56 303 0.0 1.0 0.01 0.26 0.15 94 1018.9
20191207153018 56 303 0.0 2.0 0.01 0.26 0.15 93 1018.9
20191207151519 56 303 0.0 1.0 0.02 0.26 0.15 93 1018.7
20191207150017 56 303 0.0 0.0 0.04 0.26 0.15 94 1018.6
20191207144516 56 303 0.0 0.0 0.04 0.25 0.14 93 1018.4
20191207143023 55 303 0.0 3.0 0.04 0.25 0.14 93 1018.3
20191207141517 55 303 0.0 2.0 0.04 0.24 0.13 93 1018.3
20191207140050 55 303 0.0 3.0 0.02 0.22 0.11 93 1018.1
20191207134511 55 303 0.0 6.0 0.05 0.21 0.10 93 1018.1
20191207133053 55 303 0.0 8.0 0.06 0.21 0.10 93 1017.9
20191207131507 55 303 0.0 5.0 0.05 0.20 0.09 93 1017.8
20191207130015 55 303 1.0 3.0 0.05 0.20 0.09 93 1017.8
20191207124514 55 303 2.0 5.0 0.02 0.16 0.05 93 1017.8
20191207123005 55 303 0.0 0.0 0.01 0.15 0.04 93 1017.6
20191207121503 55 303 0.0 0.0 0.01 0.15 0.04 92 1017.8
20191207120003 55 303 0.0 6.0 0.02 0.15 0.04 92 1017.8
20191207114720 55 302 5.0 8.0 0.01 0.14 0.03 92 1017.9
20191207113232 55 299 5.0 8.0 0.03 0.14 0.03 91 1018.2
20191207111626 55 257 0.0 2.0 0.03 0.14 0.03 90 1018.3
20191207110219 56 257 0.0 3.0 0.02 0.13 0.02 90 1018.6
20191207104630 56 257 2.0 6.0 0.02 0.13 0.02 89 1018.7
20191207103153 56 257 6.0 11.0 0.00 0.11 0.00 88 1018.9
20191207101828 57 261 7.0 10.0 0.00 0.11 0.00 86 1018.8
20191207100118 57 285 4.0 10.0 0.00 0.11 0.00 83 1018.5
20191207094700 58 5 1.0 5.0 0.00 0.11 0.00 82 1018.3
20191207093123 58 5 0.0 5.0 0.00 0.11 0.00 81 1018.1
20191207091553 58 5 0.0 0.0 0.00 0.11 0.00 78 1017.9
20191207090151 59 5 0.0 0.0 0.00 0.11 0.00 76 1018.0
20191207084615 59 5 0.0 0.0 0.00 0.11 0.00 74 1018.0
20191207083247 59 5 0.0 0.0 0.00 0.11 0.00 74 1018.1
20191207081559 59 5 0.0 0.0 0.00 0.11 0.11 73 1018.3
20191207080107 59 5 0.0 0.0 0.00 0.11 0.11 75 1018.5
20191207074557 59 5 0.0 4.0 0.00 0.11 0.11 75 1018.8
20191207073103 58 5 0.0 0.0 0.00 0.11 0.11 76 1019.0
20191207071618 58 5 0.0 5.0 0.00 0.11 0.11 76 1019.0
20191207070129 58 5 0.0 3.0 0.00 0.11 0.11 78 1019.2
20191207064602 57 5 0.0 6.0 0.00 0.11 0.11 79 1019.3
20191207063046 57 360 4.0 6.0 0.00 0.11 0.11 81 1019.5
20191207061546 57 360 3.0 9.0 0.00 0.11 0.11 81 1019.6
20191207060052 57 360 2.0 6.0 0.00 0.11 0.11 81 1019.8
20191207054530 57 360 3.0 6.0 0.00 0.11 0.11 79 1019.6
20191207053058 57 360 4.0 9.0 0.00 0.11 0.11 79 1019.5
20191207051607 57 329 4.0 6.0 0.00 0.11 0.11 80 1019.3
20191207050105 57 327 1.0 6.0 0.00 0.11 0.11 78 1019.1
20191207044626 57 327 2.0 8.0 0.00 0.11 0.11 79 1018.8
20191207043059 57 323 3.0 8.0 0.00 0.11 0.11 78 1018.5
20191207041609 57 321 1.0 5.0 0.00 0.11 0.11 78 1018.6
20191207040036 57 321 0.0 2.0 0.00 0.11 0.11 79 1018.6
20191207034639 57 321 0.0 1.0 0.00 0.11 0.11 80 1018.5
20191207033046 57 321 0.0 4.0 0.00 0.11 0.11 80 1018.4
20191207031551 57 321 0.0 5.0 0.00 0.11 0.11 82 1018.2
20191207030027 57 321 0.0 3.0 0.00 0.11 0.11 85 1018.4